sensor_id;sensor_type;location;lat;lon;timestamp;P1;durP1;ratioP1;P2;durP2;ratioP2
60430;SDS011;46285;45.122;20.726;2023-03-23T00:02:49;40.67;;;25.05;;
60430;SDS011;46285;45.122;20.726;2023-03-23T00:12:50;31.95;;;22.17;;
60430;SDS011;46285;45.122;20.726;2023-03-23T00:22:51;29.98;;;21.33;;
60430;SDS011;46285;45.122;20.726;2023-03-23T00:32:52;30.85;;;23.20;;
60430;SDS011;46285;45.122;20.726;2023-03-23T00:42:53;27.60;;;21.05;;
60430;SDS011;46285;45.122;20.726;2023-03-23T00:52:54;26.98;;;20.73;;
60430;SDS011;46285;45.122;20.726;2023-03-23T01:02:56;29.38;;;21.05;;
60430;SDS011;46285;45.122;20.726;2023-03-23T01:13:01;27.75;;;20.80;;
60430;SDS011;46285;45.122;20.726;2023-03-23T01:23:02;25.45;;;20.00;;
60430;SDS011;46285;45.122;20.726;2023-03-23T01:33:03;26.50;;;21.38;;
60430;SDS011;46285;45.122;20.726;2023-03-23T01:43:08;31.23;;;21.60;;
60430;SDS011;46285;45.122;20.726;2023-03-23T01:53:10;29.50;;;21.30;;
60430;SDS011;46285;45.122;20.726;2023-03-23T02:03:12;28.13;;;21.80;;
60430;SDS011;46285;45.122;20.726;2023-03-23T02:13:14;32.83;;;22.75;;
60430;SDS011;46285;45.122;20.726;2023-03-23T02:23:21;35.50;;;23.73;;
60430;SDS011;46285;45.122;20.726;2023-03-23T02:43:47;30.67;;;23.33;;
60430;SDS011;46285;45.122;20.726;2023-03-23T02:53:50;31.08;;;25.40;;
60430;SDS011;46285;45.122;20.726;2023-03-23T03:03:52;34.72;;;26.50;;
60430;SDS011;46285;45.122;20.726;2023-03-23T03:24:07;36.67;;;28.10;;
60430;SDS011;46285;45.122;20.726;2023-03-23T03:34:09;36.45;;;29.50;;
60430;SDS011;46285;45.122;20.726;2023-03-23T03:44:11;34.40;;;27.15;;
60430;SDS011;46285;45.122;20.726;2023-03-23T03:54:12;36.10;;;27.98;;
60430;SDS011;46285;45.122;20.726;2023-03-23T04:04:13;36.72;;;27.40;;
60430;SDS011;46285;45.122;20.726;2023-03-23T04:14:14;35.35;;;29.00;;
60430;SDS011;46285;45.122;20.726;2023-03-23T04:24:18;76.95;;;53.58;;
60430;SDS011;46285;45.122;20.726;2023-03-23T04:34:19;93.78;;;65.97;;
60430;SDS011;46285;45.122;20.726;2023-03-23T04:44:24;114.00;;;74.10;;
60430;SDS011;46285;45.122;20.726;2023-03-23T04:54:36;79.65;;;59.90;;
60430;SDS011;46285;45.122;20.726;2023-03-23T05:04:38;36.63;;;30.27;;
60430;SDS011;46285;45.122;20.726;2023-03-23T05:14:44;55.47;;;44.08;;
60430;SDS011;46285;45.122;20.726;2023-03-23T05:24:48;44.47;;;38.13;;
60430;SDS011;46285;45.122;20.726;2023-03-23T05:34:50;44.08;;;36.00;;
60430;SDS011;46285;45.122;20.726;2023-03-23T05:44:52;28.85;;;23.92;;
60430;SDS011;46285;45.122;20.726;2023-03-23T05:54:54;26.02;;;19.85;;
60430;SDS011;46285;45.122;20.726;2023-03-23T06:04:58;24.52;;;18.00;;
60430;SDS011;46285;45.122;20.726;2023-03-23T06:15:03;25.33;;;18.70;;
60430;SDS011;46285;45.122;20.726;2023-03-23T06:25:27;24.38;;;18.42;;
60430;SDS011;46285;45.122;20.726;2023-03-23T06:35:29;22.75;;;17.35;;
60430;SDS011;46285;45.122;20.726;2023-03-23T06:45:50;21.38;;;17.60;;
60430;SDS011;46285;45.122;20.726;2023-03-23T06:56:11;26.73;;;18.13;;
60430;SDS011;46285;45.122;20.726;2023-03-23T07:06:14;22.05;;;16.52;;
60430;SDS011;46285;45.122;20.726;2023-03-23T07:16:22;22.33;;;16.23;;
60430;SDS011;46285;45.122;20.726;2023-03-23T07:26:26;17.63;;;14.50;;
60430;SDS011;46285;45.122;20.726;2023-03-23T07:36:29;20.58;;;16.70;;
60430;SDS011;46285;45.122;20.726;2023-03-23T07:46:32;18.02;;;15.07;;
60430;SDS011;46285;45.122;20.726;2023-03-23T07:56:54;18.75;;;15.52;;
60430;SDS011;46285;45.122;20.726;2023-03-23T08:06:59;17.08;;;15.27;;
60430;SDS011;46285;45.122;20.726;2023-03-23T08:17:19;16.27;;;13.75;;
60430;SDS011;46285;45.122;20.726;2023-03-23T08:27:44;18.52;;;14.77;;
60430;SDS011;46285;45.122;20.726;2023-03-23T08:38:11;19.15;;;13.52;;
60430;SDS011;46285;45.122;20.726;2023-03-23T08:48:32;18.60;;;13.23;;
60430;SDS011;46285;45.122;20.726;2023-03-23T08:58:54;16.52;;;12.23;;
60430;SDS011;46285;45.122;20.726;2023-03-23T09:09:10;15.13;;;11.40;;
60430;SDS011;46285;45.122;20.726;2023-03-23T09:19:11;15.90;;;10.35;;
60430;SDS011;46285;45.122;20.726;2023-03-23T09:29:12;16.38;;;12.18;;
60430;SDS011;46285;45.122;20.726;2023-03-23T09:39:13;16.02;;;11.65;;
60430;SDS011;46285;45.122;20.726;2023-03-23T09:49:19;15.23;;;8.23;;
60430;SDS011;46285;45.122;20.726;2023-03-23T09:59:27;13.85;;;8.73;;
60430;SDS011;46285;45.122;20.726;2023-03-23T10:09:30;12.38;;;7.55;;
60430;SDS011;46285;45.122;20.726;2023-03-23T10:30:34;9.32;;;5.72;;
60430;SDS011;46285;45.122;20.726;2023-03-23T10:40:16;12.25;;;7.53;;
60430;SDS011;46285;45.122;20.726;2023-03-23T10:50:22;9.10;;;6.00;;
60430;SDS011;46285;45.122;20.726;2023-03-23T11:00:24;9.43;;;5.55;;
60430;SDS011;46285;45.122;20.726;2023-03-23T11:10:27;11.93;;;5.32;;
60430;SDS011;46285;45.122;20.726;2023-03-23T11:20:29;9.57;;;6.05;;
60430;SDS011;46285;45.122;20.726;2023-03-23T11:30:30;14.82;;;8.30;;
60430;SDS011;46285;45.122;20.726;2023-03-23T11:40:32;8.88;;;4.70;;
60430;SDS011;46285;45.122;20.726;2023-03-23T11:50:34;9.35;;;6.32;;
60430;SDS011;46285;45.122;20.726;2023-03-23T12:00:35;9.73;;;5.07;;
60430;SDS011;46285;45.122;20.726;2023-03-23T12:10:43;8.00;;;4.75;;
60430;SDS011;46285;45.122;20.726;2023-03-23T12:52:03;8.82;;;4.57;;
60430;SDS011;46285;45.122;20.726;2023-03-23T13:02:17;7.53;;;4.63;;
60430;SDS011;46285;45.122;20.726;2023-03-23T13:12:19;10.43;;;4.40;;
60430;SDS011;46285;45.122;20.726;2023-03-23T13:22:26;8.93;;;4.55;;
60430;SDS011;46285;45.122;20.726;2023-03-23T13:32:33;7.28;;;4.47;;
60430;SDS011;46285;45.122;20.726;2023-03-23T13:42:34;15.63;;;5.40;;
60430;SDS011;46285;45.122;20.726;2023-03-23T14:02:40;32.85;;;8.00;;
60430;SDS011;46285;45.122;20.726;2023-03-23T14:12:43;8.13;;;4.20;;
60430;SDS011;46285;45.122;20.726;2023-03-23T14:22:46;8.88;;;4.72;;
60430;SDS011;46285;45.122;20.726;2023-03-23T14:32:47;7.53;;;4.78;;
60430;SDS011;46285;45.122;20.726;2023-03-23T14:42:49;12.80;;;4.88;;
60430;SDS011;46285;45.122;20.726;2023-03-23T14:52:51;10.15;;;5.05;;
60430;SDS011;46285;45.122;20.726;2023-03-23T15:02:54;10.98;;;5.63;;
60430;SDS011;46285;45.122;20.726;2023-03-23T15:12:56;11.87;;;6.53;;
60430;SDS011;46285;45.122;20.726;2023-03-23T15:23:07;11.52;;;7.53;;
60430;SDS011;46285;45.122;20.726;2023-03-23T15:33:12;12.55;;;7.07;;
60430;SDS011;46285;45.122;20.726;2023-03-23T15:43:24;8.02;;;4.97;;
60430;SDS011;46285;45.122;20.726;2023-03-23T15:53:32;11.90;;;6.88;;
60430;SDS011;46285;45.122;20.726;2023-03-23T16:03:46;26.25;;;16.80;;
60430;SDS011;46285;45.122;20.726;2023-03-23T16:13:48;16.88;;;7.95;;
60430;SDS011;46285;45.122;20.726;2023-03-23T16:23:49;17.83;;;12.20;;
60430;SDS011;46285;45.122;20.726;2023-03-23T16:33:51;33.85;;;24.17;;
60430;SDS011;46285;45.122;20.726;2023-03-23T16:43:52;94.30;;;71.85;;
60430;SDS011;46285;45.122;20.726;2023-03-23T16:53:53;92.30;;;47.70;;
60430;SDS011;46285;45.122;20.726;2023-03-23T17:03:54;75.15;;;34.05;;
60430;SDS011;46285;45.122;20.726;2023-03-23T17:13:55;97.70;;;69.53;;
60430;SDS011;46285;45.122;20.726;2023-03-23T17:23:56;601.38;;;420.30;;
60430;SDS011;46285;45.122;20.726;2023-03-23T17:33:58;189.68;;;116.00;;
60430;SDS011;46285;45.122;20.726;2023-03-23T17:43:59;228.05;;;143.57;;
60430;SDS011;46285;45.122;20.726;2023-03-23T17:54:00;359.23;;;199.35;;
60430;SDS011;46285;45.122;20.726;2023-03-23T18:04:01;531.55;;;351.63;;
60430;SDS011;46285;45.122;20.726;2023-03-23T18:14:04;230.45;;;153.00;;
60430;SDS011;46285;45.122;20.726;2023-03-23T18:24:05;266.92;;;189.95;;
60430;SDS011;46285;45.122;20.726;2023-03-23T18:34:07;422.63;;;290.35;;
60430;SDS011;46285;45.122;20.726;2023-03-23T18:44:08;261.20;;;203.38;;
60430;SDS011;46285;45.122;20.726;2023-03-23T18:54:09;37.60;;;29.00;;
60430;SDS011;46285;45.122;20.726;2023-03-23T19:04:10;24.30;;;19.85;;
60430;SDS011;46285;45.122;20.726;2023-03-23T19:14:11;41.72;;;33.45;;
60430;SDS011;46285;45.122;20.726;2023-03-23T19:24:12;25.90;;;21.42;;
60430;SDS011;46285;45.122;20.726;2023-03-23T19:34:14;23.25;;;15.88;;
60430;SDS011;46285;45.122;20.726;2023-03-23T19:44:15;312.83;;;164.15;;
60430;SDS011;46285;45.122;20.726;2023-03-23T19:54:17;134.88;;;78.18;;
60430;SDS011;46285;45.122;20.726;2023-03-23T20:04:18;164.52;;;91.47;;
60430;SDS011;46285;45.122;20.726;2023-03-23T20:14:20;143.32;;;93.82;;
60430;SDS011;46285;45.122;20.726;2023-03-23T20:24:21;102.18;;;64.00;;
60430;SDS011;46285;45.122;20.726;2023-03-23T20:34:22;42.88;;;29.88;;
60430;SDS011;46285;45.122;20.726;2023-03-23T20:44:24;28.58;;;21.70;;
60430;SDS011;46285;45.122;20.726;2023-03-23T20:54:26;24.50;;;18.17;;
60430;SDS011;46285;45.122;20.726;2023-03-23T21:04:31;35.92;;;25.00;;
60430;SDS011;46285;45.122;20.726;2023-03-23T21:14:49;28.13;;;21.73;;
60430;SDS011;46285;45.122;20.726;2023-03-23T21:24:50;21.05;;;15.90;;
60430;SDS011;46285;45.122;20.726;2023-03-23T21:34:51;26.92;;;19.95;;
60430;SDS011;46285;45.122;20.726;2023-03-23T21:44:52;22.70;;;18.63;;
60430;SDS011;46285;45.122;20.726;2023-03-23T21:54:53;21.60;;;17.17;;
60430;SDS011;46285;45.122;20.726;2023-03-23T22:04:55;18.02;;;13.05;;
60430;SDS011;46285;45.122;20.726;2023-03-23T22:14:56;17.25;;;11.75;;
60430;SDS011;46285;45.122;20.726;2023-03-23T22:24:57;22.35;;;15.57;;
60430;SDS011;46285;45.122;20.726;2023-03-23T22:34:58;19.38;;;14.73;;
60430;SDS011;46285;45.122;20.726;2023-03-23T22:44:59;26.38;;;18.10;;
60430;SDS011;46285;45.122;20.726;2023-03-23T22:55:02;38.15;;;24.33;;
60430;SDS011;46285;45.122;20.726;2023-03-23T23:05:03;26.85;;;18.85;;
60430;SDS011;46285;45.122;20.726;2023-03-23T23:15:05;33.28;;;22.30;;
60430;SDS011;46285;45.122;20.726;2023-03-23T23:25:06;35.92;;;22.08;;
60430;SDS011;46285;45.122;20.726;2023-03-23T23:35:09;27.30;;;18.08;;
60430;SDS011;46285;45.122;20.726;2023-03-23T23:45:10;28.27;;;19.25;;
60430;SDS011;46285;45.122;20.726;2023-03-23T23:55:12;29.40;;;19.77;;
